Wednesday, October 24, 2018, 2:49 AM GMT
Back to Local

CWIS, Charlevoix CS , Que.

Location: , , Canada Lat: 47.283
Local Time: 2:49 AM GMT ( 2:49 GMT) Lon: -70.633
Time Zone: GMT Elev: 2358 ft

Show me the last for .
Show Decoded

2018-10-24 02:00 METAR CWIS 240200Z AUTO 03006KT M04/M07 RMK AO1 SLP202 T10391067 56006 =
2018-10-24 01:00 METAR CWIS 240100Z AUTO 04004KT M04/M07 RMK AO1 SOG 07 8002 SLP208 T10371068 =
2018-10-24 00:00 METAR CWIS 240000Z AUTO 05004KT M04/M06 RMK AO1 SOG 06 0004 SLP212 T10421060 =
2018-10-23 23:00 METAR CWIS 232300Z AUTO 05004KT M04/M06 RMK AO1 SOG 06 3008 SLP216 T10351062 =
2018-10-23 22:00 METAR CWIS 232200Z AUTO 04003KT M02/M07 RMK AO1 SOG 07 3004 SLP212 T10241068 =
2018-10-23 21:00 METAR CWIS 232100Z AUTO 04003KT M01/M07 RMK AO1 SOG 07 5001 SLP206 T10141070 =
2018-10-23 20:00 METAR CWIS 232000Z AUTO 06002KT M00/M07 RMK AO1 SOG 06 6006 SLP203 T10011073 =
2018-10-23 19:00 METAR CWIS 231900Z AUTO 17003KT 01/M08 RMK AO1 SOG 04 6007 SLP205 T00061078 =
2018-10-23 18:00 METAR CWIS 231800Z AUTO 18002KT 01/M08 RMK AO1 SOG 04 6012 SLP204 T00061075 =
2018-10-23 17:00 METAR CWIS 231700Z AUTO 05005KT M01/M06 RMK AO1 SLP209 T10091058 58005 =
2018-10-23 16:00 METAR CWIS 231600Z AUTO 14002KT M02/M07 RMK AO1 SOG 05 8003 SLP213 T10211068 =
2018-10-23 15:00 METAR CWIS 231500Z AUTO 09003KT M03/M07 RMK AO1 SOG 05 3003 SLP219 T10341068 =
2018-10-23 14:00 METAR CWIS 231400Z AUTO 32001KT M04/M07 RMK AO1 SOG 05 0005 SLP216 T10351068 =
2018-10-23 13:00 METAR CWIS 231300Z AUTO 21001KT M08/M08 RMK AO1 SOG 06 1009 SLP220 T10781084 =
2018-10-23 12:00 METAR CWIS 231200Z AUTO 17001KT M11/M12 RMK AO1 SOG 07 3011 SLP222 T11081117 =
2018-10-23 11:00 METAR CWIS 231100Z AUTO 13002KT M11/M12 RMK AO1 SOG 07 3005 SLP216 T11131122 =
2018-10-23 10:00 METAR CWIS 231000Z AUTO 15001KT M11/M12 RMK AO1 SOG 05 3003 SLP211 T11121121 =
2018-10-23 09:00 METAR CWIS 230900Z AUTO 13001KT M12/M12 RMK AO1 SOG 03 0000 SLP208 T11151123 =
2018-10-23 06:00 METAR CWIS 230600Z AUTO 14001KT M11/M11 RMK AO1 SOG 07 2003 SLP206 T11061112 =
2018-10-23 05:00 METAR CWIS 230500Z AUTO 13001KT M10/M11 RMK AO1 SOG 04 1005 SLP205 T11011108 =
2018-10-23 04:00 METAR CWIS 230400Z AUTO 35001KT M09/M10 RMK AO1 SOG 04 1008 SLP202 T10891100 =
2018-10-23 03:00 METAR CWIS 230300Z AUTO 09001KT M09/M10 RMK AO1 SOG 07 1011 SLP202 T10881101 =

Support USWX by starting your Amazon purchase here.